Thurston, Nebraska
Current Conditions -  °F | °C
As of 4:35 PM on Monday 26 Jan 2015 (Local Time) from KLCG Reporting Station
Clear Clear  
Wind Chill: 53°   Ceiling: Unl
Heat Index: 53°   Visibility: 10mi
Dew Point: 36°   Wind: 9mph
Humidity: 52%   Direction: 320°NW
Pressure: 29.98"   Gusts: NA
Location:  42.18°N, 96.7°W
Report Text: KLCG 262235Z AUTO 32008KT 10SM CLR 12/02 A2998 RMK AO2 T01160021
Loading
Personal Weather Stations






























Interactive Weather Map New forecast layout! Learn more

10-Day Weather Forecast

Advertisements
Track Severe Weather on mobile